sensor_id;sensor_type;location;lat;lon;timestamp;pressure;altitude;pressure_sealevel;temperature;humidity
78117;BME280;69042;59.120;37.904;2023-08-20T00:00:36;100826.19;;;16.56;71.80
78117;BME280;69042;59.120;37.904;2023-08-20T00:03:11;100826.94;;;16.58;72.00
78117;BME280;69042;59.120;37.904;2023-08-20T00:05:39;100820.81;;;16.57;71.75
78117;BME280;69042;59.120;37.904;2023-08-20T00:08:05;100816.47;;;16.56;71.73
78117;BME280;69042;59.120;37.904;2023-08-20T00:10:31;100820.97;;;16.54;71.52
78117;BME280;69042;59.120;37.904;2023-08-20T00:12:58;100823.88;;;16.50;71.68
78117;BME280;69042;59.120;37.904;2023-08-20T00:15:24;100819.63;;;16.47;71.70
78117;BME280;69042;59.120;37.904;2023-08-20T00:17:54;100802.44;;;16.40;71.60
78117;BME280;69042;59.120;37.904;2023-08-20T00:20:21;100810.69;;;16.34;71.88
78117;BME280;69042;59.120;37.904;2023-08-20T00:22:48;100805.72;;;16.28;72.12
78117;BME280;69042;59.120;37.904;2023-08-20T00:25:16;100800.63;;;16.24;72.26
78117;BME280;69042;59.120;37.904;2023-08-20T00:27:43;100798.19;;;16.21;72.45
78117;BME280;69042;59.120;37.904;2023-08-20T00:30:10;100804.38;;;16.20;72.41
78117;BME280;69042;59.120;37.904;2023-08-20T00:32:37;100800.13;;;16.18;72.40
78117;BME280;69042;59.120;37.904;2023-08-20T00:35:03;100798.59;;;16.14;72.49
78117;BME280;69042;59.120;37.904;2023-08-20T00:37:31;100793.50;;;16.11;72.43
78117;BME280;69042;59.120;37.904;2023-08-20T00:39:57;100786.50;;;16.10;72.47
78117;BME280;69042;59.120;37.904;2023-08-20T00:42:24;100775.22;;;16.08;72.44
78117;BME280;69042;59.120;37.904;2023-08-20T00:44:53;100790.09;;;16.09;72.45
78117;BME280;69042;59.120;37.904;2023-08-20T00:47:20;100783.97;;;16.08;72.70
78117;BME280;69042;59.120;37.904;2023-08-20T00:49:47;100786.66;;;16.07;72.51
78117;BME280;69042;59.120;37.904;2023-08-20T00:52:14;100786.84;;;16.03;72.51
78117;BME280;69042;59.120;37.904;2023-08-20T00:54:41;100779.00;;;16.02;72.51
78117;BME280;69042;59.120;37.904;2023-08-20T00:57:10;100777.41;;;15.99;72.47
78117;BME280;69042;59.120;37.904;2023-08-20T00:59:36;100776.63;;;15.97;72.62
78117;BME280;69042;59.120;37.904;2023-08-20T01:02:03;100770.50;;;15.97;72.62
78117;BME280;69042;59.120;37.904;2023-08-20T01:04:30;100782.06;;;15.94;72.74
78117;BME280;69042;59.120;37.904;2023-08-20T01:10:01;100756.81;;;15.90;73.13
78117;BME280;69042;59.120;37.904;2023-08-20T01:12:31;100764.72;;;15.90;72.95
78117;BME280;69042;59.120;37.904;2023-08-20T01:14:58;100762.22;;;15.87;73.12
78117;BME280;69042;59.120;37.904;2023-08-20T01:17:24;100763.19;;;15.86;73.24
78117;BME280;69042;59.120;37.904;2023-08-20T01:19:50;100760.53;;;15.86;73.43
78117;BME280;69042;59.120;37.904;2023-08-20T01:22:59;100757.06;;;15.86;73.45
78117;BME280;69042;59.120;37.904;2023-08-20T01:28:31;100751.78;;;15.86;73.39
78117;BME280;69042;59.120;37.904;2023-08-20T01:30:59;100742.28;;;15.83;73.28
78117;BME280;69042;59.120;37.904;2023-08-20T01:33:27;100738.50;;;15.87;73.39
78117;BME280;69042;59.120;37.904;2023-08-20T01:35:54;100735.13;;;15.85;73.53
78117;BME280;69042;59.120;37.904;2023-08-20T01:38:21;100727.31;;;15.84;73.73
78117;BME280;69042;59.120;37.904;2023-08-20T01:40:48;100740.41;;;15.85;73.53
78117;BME280;69042;59.120;37.904;2023-08-20T01:43:15;100739.47;;;15.86;73.60
78117;BME280;69042;59.120;37.904;2023-08-20T01:45:41;100733.25;;;15.87;73.81
78117;BME280;69042;59.120;37.904;2023-08-20T01:48:08;100724.41;;;15.88;73.75
78117;BME280;69042;59.120;37.904;2023-08-20T01:50:35;100728.75;;;15.89;73.92
78117;BME280;69042;59.120;37.904;2023-08-20T01:53:02;100725.25;;;15.89;73.90
78117;BME280;69042;59.120;37.904;2023-08-20T01:55:31;100728.75;;;15.89;73.74
78117;BME280;69042;59.120;37.904;2023-08-20T01:57:57;100729.50;;;15.91;74.02
78117;BME280;69042;59.120;37.904;2023-08-20T02:00:24;100722.38;;;15.93;73.93
78117;BME280;69042;59.120;37.904;2023-08-20T02:02:50;100724.09;;;15.94;73.82
78117;BME280;69042;59.120;37.904;2023-08-20T02:05:16;100730.22;;;15.95;73.94
78117;BME280;69042;59.120;37.904;2023-08-20T02:07:42;100720.44;;;15.97;74.08
78117;BME280;69042;59.120;37.904;2023-08-20T02:10:08;100722.03;;;15.99;74.07
78117;BME280;69042;59.120;37.904;2023-08-20T02:12:34;100715.06;;;15.98;73.89
78117;BME280;69042;59.120;37.904;2023-08-20T02:15:01;100711.44;;;16.01;74.01
78117;BME280;69042;59.120;37.904;2023-08-20T02:17:28;100713.97;;;16.02;74.15
78117;BME280;69042;59.120;37.904;2023-08-20T02:19:54;100717.38;;;16.05;74.10
78117;BME280;69042;59.120;37.904;2023-08-20T02:22:20;100711.94;;;16.08;74.12
78117;BME280;69042;59.120;37.904;2023-08-20T02:24:47;100712.69;;;16.10;74.43
78117;BME280;69042;59.120;37.904;2023-08-20T02:27:15;100712.34;;;16.16;74.19
78117;BME280;69042;59.120;37.904;2023-08-20T02:29:42;100713.88;;;16.20;74.19
78117;BME280;69042;59.120;37.904;2023-08-20T02:32:08;100708.28;;;16.26;74.00
78117;BME280;69042;59.120;37.904;2023-08-20T02:34:34;100707.16;;;16.30;74.05
78117;BME280;69042;59.120;37.904;2023-08-20T02:37:01;100712.25;;;16.33;73.94
78117;BME280;69042;59.120;37.904;2023-08-20T02:39:27;100708.66;;;16.34;74.03
78117;BME280;69042;59.120;37.904;2023-08-20T02:41:53;100704.28;;;16.35;73.76
78117;BME280;69042;59.120;37.904;2023-08-20T02:44:19;100706.78;;;16.36;73.78
78117;BME280;69042;59.120;37.904;2023-08-20T02:46:46;100705.94;;;16.36;73.84
78117;BME280;69042;59.120;37.904;2023-08-20T02:49:12;100701.53;;;16.36;73.72
78117;BME280;69042;59.120;37.904;2023-08-20T02:51:42;100691.75;;;16.38;73.62
78117;BME280;69042;59.120;37.904;2023-08-20T02:54:08;100690.22;;;16.34;73.35
78117;BME280;69042;59.120;37.904;2023-08-20T02:56:34;100695.66;;;16.31;73.41
78117;BME280;69042;59.120;37.904;2023-08-20T02:59:01;100688.84;;;16.27;73.47
78117;BME280;69042;59.120;37.904;2023-08-20T03:01:27;100685.47;;;16.25;73.45
78117;BME280;69042;59.120;37.904;2023-08-20T03:03:54;100682.16;;;16.21;73.34
78117;BME280;69042;59.120;37.904;2023-08-20T03:06:21;100684.13;;;16.18;73.39
78117;BME280;69042;59.120;37.904;2023-08-20T03:08:47;100688.63;;;16.16;73.53
78117;BME280;69042;59.120;37.904;2023-08-20T03:11:14;100685.13;;;16.15;73.61
78117;BME280;69042;59.120;37.904;2023-08-20T03:13:40;100690.34;;;16.17;73.65
78117;BME280;69042;59.120;37.904;2023-08-20T03:16:06;100690.34;;;16.17;73.58
78117;BME280;69042;59.120;37.904;2023-08-20T03:18:32;100690.16;;;16.20;73.73
78117;BME280;69042;59.120;37.904;2023-08-20T03:20:59;100693.28;;;16.27;73.78
78117;BME280;69042;59.120;37.904;2023-08-20T03:23:25;100694.63;;;16.34;73.68
78117;BME280;69042;59.120;37.904;2023-08-20T03:25:51;100691.75;;;16.38;73.50
78117;BME280;69042;59.120;37.904;2023-08-20T03:28:18;100685.28;;;16.44;73.44
78117;BME280;69042;59.120;37.904;2023-08-20T03:30:45;100691.13;;;16.49;73.47
78117;BME280;69042;59.120;37.904;2023-08-20T03:33:15;100691.63;;;16.56;73.44
78117;BME280;69042;59.120;37.904;2023-08-20T03:35:43;100683.44;;;16.60;73.40
78117;BME280;69042;59.120;37.904;2023-08-20T03:38:09;100690.13;;;16.66;73.09
78117;BME280;69042;59.120;37.904;2023-08-20T03:40:35;100681.09;;;16.70;72.97
78117;BME280;69042;59.120;37.904;2023-08-20T03:43:02;100684.44;;;16.74;72.56
78117;BME280;69042;59.120;37.904;2023-08-20T03:45:30;100688.69;;;16.76;72.64
78117;BME280;69042;59.120;37.904;2023-08-20T03:47:57;100682.31;;;16.80;72.50
78117;BME280;69042;59.120;37.904;2023-08-20T03:50:23;100684.00;;;16.81;72.43
78117;BME280;69042;59.120;37.904;2023-08-20T03:52:49;100681.34;;;16.81;72.54
78117;BME280;69042;59.120;37.904;2023-08-20T03:55:16;100682.13;;;16.83;72.42
78117;BME280;69042;59.120;37.904;2023-08-20T03:57:42;100670.53;;;16.86;72.28
78117;BME280;69042;59.120;37.904;2023-08-20T04:00:09;100680.06;;;16.89;72.08
78117;BME280;69042;59.120;37.904;2023-08-20T04:02:43;100676.28;;;16.93;72.01
78117;BME280;69042;59.120;37.904;2023-08-20T04:05:10;100668.28;;;16.94;71.99
78117;BME280;69042;59.120;37.904;2023-08-20T04:07:36;100664.69;;;16.95;71.94
78117;BME280;69042;59.120;37.904;2023-08-20T04:10:02;100668.09;;;16.97;71.87
78117;BME280;69042;59.120;37.904;2023-08-20T04:12:29;100671.63;;;16.98;71.70
78117;BME280;69042;59.120;37.904;2023-08-20T04:14:56;100661.97;;;16.97;71.60
78117;BME280;69042;59.120;37.904;2023-08-20T04:17:22;100655.94;;;16.95;71.59
78117;BME280;69042;59.120;37.904;2023-08-20T04:19:51;100658.00;;;16.90;71.36
78117;BME280;69042;59.120;37.904;2023-08-20T04:22:17;100663.50;;;16.87;71.47
78117;BME280;69042;59.120;37.904;2023-08-20T04:24:43;100671.47;;;16.85;71.44
78117;BME280;69042;59.120;37.904;2023-08-20T04:27:09;100668.75;;;16.87;71.62
78117;BME280;69042;59.120;37.904;2023-08-20T04:29:38;100664.22;;;16.89;71.42
78117;BME280;69042;59.120;37.904;2023-08-20T04:32:04;100655.09;;;16.94;71.99
78117;BME280;69042;59.120;37.904;2023-08-20T04:34:31;100654.63;;;17.02;71.92
78117;BME280;69042;59.120;37.904;2023-08-20T04:36:58;100661.13;;;17.11;71.57
78117;BME280;69042;59.120;37.904;2023-08-20T04:39:24;100660.69;;;17.18;71.55
78117;BME280;69042;59.120;37.904;2023-08-20T04:41:52;100657.78;;;17.23;71.24
78117;BME280;69042;59.120;37.904;2023-08-20T04:44:20;100650.41;;;17.28;70.91
78117;BME280;69042;59.120;37.904;2023-08-20T04:46:48;100653.72;;;17.32;71.05
78117;BME280;69042;59.120;37.904;2023-08-20T04:49:14;100652.84;;;17.31;70.96
78117;BME280;69042;59.120;37.904;2023-08-20T04:51:40;100644.75;;;17.34;70.81
78117;BME280;69042;59.120;37.904;2023-08-20T04:54:07;100647.94;;;17.39;70.86
78117;BME280;69042;59.120;37.904;2023-08-20T04:56:33;100642.47;;;17.42;70.64
78117;BME280;69042;59.120;37.904;2023-08-20T04:58:59;100641.63;;;17.42;70.06
78117;BME280;69042;59.120;37.904;2023-08-20T05:01:45;100646.06;;;17.41;70.39
78117;BME280;69042;59.120;37.904;2023-08-20T05:04:12;100640.88;;;17.40;70.23
78117;BME280;69042;59.120;37.904;2023-08-20T05:06:38;100635.78;;;17.37;69.90
78117;BME280;69042;59.120;37.904;2023-08-20T05:09:04;100638.59;;;17.34;69.88
78117;BME280;69042;59.120;37.904;2023-08-20T05:11:31;100640.31;;;17.35;69.94
78117;BME280;69042;59.120;37.904;2023-08-20T05:13:58;100631.06;;;17.42;70.26
78117;BME280;69042;59.120;37.904;2023-08-20T05:16:25;100630.38;;;17.53;70.38
78117;BME280;69042;59.120;37.904;2023-08-20T05:18:51;100638.50;;;17.64;70.03
78117;BME280;69042;59.120;37.904;2023-08-20T05:21:17;100631.78;;;17.73;69.71
78117;BME280;69042;59.120;37.904;2023-08-20T05:23:44;100626.78;;;17.82;69.54
78117;BME280;69042;59.120;37.904;2023-08-20T05:26:11;100626.38;;;17.88;68.95
78117;BME280;69042;59.120;37.904;2023-08-20T05:28:37;100619.84;;;17.94;68.39
78117;BME280;69042;59.120;37.904;2023-08-20T05:31:03;100625.13;;;17.94;68.48
78117;BME280;69042;59.120;37.904;2023-08-20T05:33:30;100622.47;;;17.94;67.88
78117;BME280;69042;59.120;37.904;2023-08-20T05:35:58;100614.66;;;17.93;67.88
78117;BME280;69042;59.120;37.904;2023-08-20T05:38:25;100619.84;;;17.94;67.91
78117;BME280;69042;59.120;37.904;2023-08-20T05:40:51;100622.31;;;17.97;67.75
78117;BME280;69042;59.120;37.904;2023-08-20T05:43:17;100623.81;;;18.01;67.88
78117;BME280;69042;59.120;37.904;2023-08-20T05:45:44;100626.03;;;18.07;67.47
78117;BME280;69042;59.120;37.904;2023-08-20T05:48:15;100609.22;;;18.08;67.66
78117;BME280;69042;59.120;37.904;2023-08-20T05:50:42;100623.94;;;18.13;67.41
78117;BME280;69042;59.120;37.904;2023-08-20T05:53:08;100626.78;;;18.09;66.74
78117;BME280;69042;59.120;37.904;2023-08-20T05:55:34;100629.44;;;18.09;67.11
78117;BME280;69042;59.120;37.904;2023-08-20T05:58:00;100632.06;;;18.09;66.88
78117;BME280;69042;59.120;37.904;2023-08-20T06:00:26;100633.03;;;18.08;67.23
78117;BME280;69042;59.120;37.904;2023-08-20T06:02:53;100633.97;;;18.07;66.93
78117;BME280;69042;59.120;37.904;2023-08-20T06:05:19;100630.19;;;18.12;67.33
78117;BME280;69042;59.120;37.904;2023-08-20T06:07:45;100631.97;;;18.11;67.07
78117;BME280;69042;59.120;37.904;2023-08-20T06:10:11;100632.28;;;18.06;66.74
78117;BME280;69042;59.120;37.904;2023-08-20T06:12:37;100634.16;;;18.04;66.87
78117;BME280;69042;59.120;37.904;2023-08-20T06:15:04;100633.41;;;18.02;66.96
78117;BME280;69042;59.120;37.904;2023-08-20T06:17:31;100636.44;;;17.96;66.76
78117;BME280;69042;59.120;37.904;2023-08-20T06:19:57;100634.22;;;17.90;66.99
78117;BME280;69042;59.120;37.904;2023-08-20T06:22:23;100642.34;;;17.87;67.21
78117;BME280;69042;59.120;37.904;2023-08-20T06:24:49;100633.91;;;17.80;66.72
78117;BME280;69042;59.120;37.904;2023-08-20T06:27:16;100631.09;;;17.69;66.28
78117;BME280;69042;59.120;37.904;2023-08-20T06:29:42;100636.78;;;17.63;66.65
78117;BME280;69042;59.120;37.904;2023-08-20T06:32:08;100632.53;;;17.60;66.86
78117;BME280;69042;59.120;37.904;2023-08-20T06:34:34;100628.75;;;17.64;66.96
78117;BME280;69042;59.120;37.904;2023-08-20T06:37:02;100623.84;;;17.73;67.13
78117;BME280;69042;59.120;37.904;2023-08-20T06:39:28;100630.06;;;17.86;67.15
78117;BME280;69042;59.120;37.904;2023-08-20T06:41:54;100615.41;;;17.95;66.50
78117;BME280;69042;59.120;37.904;2023-08-20T06:44:20;100623.91;;;18.00;65.60
78117;BME280;69042;59.120;37.904;2023-08-20T06:46:47;100620.00;;;18.05;65.65
78117;BME280;69042;59.120;37.904;2023-08-20T06:49:13;100623.84;;;18.14;65.18
78117;BME280;69042;59.120;37.904;2023-08-20T06:51:39;100615.50;;;18.20;65.57
78117;BME280;69042;59.120;37.904;2023-08-20T06:54:05;100614.34;;;18.24;65.04
78117;BME280;69042;59.120;37.904;2023-08-20T06:56:35;100616.56;;;18.30;65.16
78117;BME280;69042;59.120;37.904;2023-08-20T06:59:01;100607.09;;;18.41;65.29
78117;BME280;69042;59.120;37.904;2023-08-20T07:01:29;100622.25;;;18.51;64.82
78117;BME280;69042;59.120;37.904;2023-08-20T07:03:55;100608.06;;;18.52;63.44
78117;BME280;69042;59.120;37.904;2023-08-20T07:06:21;100605.84;;;18.46;63.15
78117;BME280;69042;59.120;37.904;2023-08-20T07:08:47;100601.69;;;18.42;63.44
78117;BME280;69042;59.120;37.904;2023-08-20T07:11:14;100597.47;;;18.40;63.13
78117;BME280;69042;59.120;37.904;2023-08-20T07:13:40;100601.13;;;18.37;62.94
78117;BME280;69042;59.120;37.904;2023-08-20T07:16:06;100597.13;;;18.31;62.86
78117;BME280;69042;59.120;37.904;2023-08-20T07:18:32;100608.09;;;18.25;62.42
78117;BME280;69042;59.120;37.904;2023-08-20T07:20:58;100604.84;;;18.22;62.55
78117;BME280;69042;59.120;37.904;2023-08-20T07:23:25;100614.09;;;18.15;62.09
78117;BME280;69042;59.120;37.904;2023-08-20T07:25:51;100616.03;;;18.13;62.04
78117;BME280;69042;59.120;37.904;2023-08-20T07:28:18;100609.31;;;18.07;62.67
78117;BME280;69042;59.120;37.904;2023-08-20T07:30:52;100600.34;;;18.09;62.94
78117;BME280;69042;59.120;37.904;2023-08-20T07:33:18;100611.66;;;18.12;62.68
78117;BME280;69042;59.120;37.904;2023-08-20T07:35:44;100609.69;;;18.15;62.92
78117;BME280;69042;59.120;37.904;2023-08-20T07:38:11;100609.25;;;18.21;62.77
78117;BME280;69042;59.120;37.904;2023-08-20T07:40:37;100608.00;;;18.27;62.80
78117;BME280;69042;59.120;37.904;2023-08-20T07:43:03;100609.50;;;18.31;62.06
78117;BME280;69042;59.120;37.904;2023-08-20T07:45:29;100607.91;;;18.28;61.79
78117;BME280;69042;59.120;37.904;2023-08-20T07:47:55;100613.31;;;18.27;61.88
78117;BME280;69042;59.120;37.904;2023-08-20T07:50:21;100608.00;;;18.27;62.02
78117;BME280;69042;59.120;37.904;2023-08-20T07:52:48;100601.44;;;18.33;62.25
78117;BME280;69042;59.120;37.904;2023-08-20T07:55:14;100605.09;;;18.44;62.25
78117;BME280;69042;59.120;37.904;2023-08-20T07:57:40;100606.16;;;18.55;61.94
78117;BME280;69042;59.120;37.904;2023-08-20T08:00:06;100608.31;;;18.62;61.49
78117;BME280;69042;59.120;37.904;2023-08-20T08:02:37;100608.50;;;18.72;61.90
78117;BME280;69042;59.120;37.904;2023-08-20T08:05:03;100608.75;;;18.95;61.75
78117;BME280;69042;59.120;37.904;2023-08-20T08:07:30;100601.75;;;19.19;61.56
78117;BME280;69042;59.120;37.904;2023-08-20T08:09:56;100604.47;;;19.43;60.63
78117;BME280;69042;59.120;37.904;2023-08-20T08:12:22;100607.63;;;19.61;60.82
78117;BME280;69042;59.120;37.904;2023-08-20T08:14:48;100596.03;;;19.75;60.11
78117;BME280;69042;59.120;37.904;2023-08-20T08:17:14;100588.34;;;19.83;59.34
78117;BME280;69042;59.120;37.904;2023-08-20T08:19:40;100594.38;;;19.85;58.82
78117;BME280;69042;59.120;37.904;2023-08-20T08:22:06;100590.06;;;19.84;58.41
78117;BME280;69042;59.120;37.904;2023-08-20T08:24:33;100590.91;;;19.85;58.46
78117;BME280;69042;59.120;37.904;2023-08-20T08:26:59;100595.97;;;19.88;58.00
78117;BME280;69042;59.120;37.904;2023-08-20T08:29:26;100595.75;;;19.91;58.02
78117;BME280;69042;59.120;37.904;2023-08-20T08:31:52;100583.22;;;19.93;57.89
78117;BME280;69042;59.120;37.904;2023-08-20T08:34:18;100579.91;;;20.02;58.15
78117;BME280;69042;59.120;37.904;2023-08-20T08:36:44;100582.84;;;20.22;58.11
78117;BME280;69042;59.120;37.904;2023-08-20T08:39:10;100580.75;;;20.38;58.28
78117;BME280;69042;59.120;37.904;2023-08-20T08:41:38;100585.84;;;20.52;57.52
78117;BME280;69042;59.120;37.904;2023-08-20T08:44:08;100586.88;;;20.63;56.88
78117;BME280;69042;59.120;37.904;2023-08-20T08:46:35;100587.38;;;20.68;56.42
78117;BME280;69042;59.120;37.904;2023-08-20T08:49:02;100577.47;;;20.70;55.77
78117;BME280;69042;59.120;37.904;2023-08-20T08:51:30;100581.34;;;20.77;55.46
78117;BME280;69042;59.120;37.904;2023-08-20T08:53:56;100581.09;;;20.80;55.38
78117;BME280;69042;59.120;37.904;2023-08-20T08:56:22;100579.66;;;20.87;55.21
78117;BME280;69042;59.120;37.904;2023-08-20T08:58:49;100581.63;;;21.08;54.87
78117;BME280;69042;59.120;37.904;2023-08-20T09:01:15;100583.28;;;21.31;54.78
78117;BME280;69042;59.120;37.904;2023-08-20T09:03:41;100580.63;;;21.54;54.17
78117;BME280;69042;59.120;37.904;2023-08-20T09:06:09;100576.84;;;21.68;53.91
78117;BME280;69042;59.120;37.904;2023-08-20T09:08:36;100574.28;;;21.77;53.68
78117;BME280;69042;59.120;37.904;2023-08-20T09:11:03;100585.13;;;21.86;52.99
78117;BME280;69042;59.120;37.904;2023-08-20T09:15:59;100582.34;;;21.87;52.72
78117;BME280;69042;59.120;37.904;2023-08-20T09:18:29;100580.28;;;21.91;52.80
78117;BME280;69042;59.120;37.904;2023-08-20T09:20:57;100578.28;;;22.04;53.21
78117;BME280;69042;59.120;37.904;2023-08-20T09:23:28;100572.78;;;22.28;52.82
78117;BME280;69042;59.120;37.904;2023-08-20T09:25:55;100584.28;;;22.50;51.72
78117;BME280;69042;59.120;37.904;2023-08-20T09:28:21;100579.81;;;22.50;50.97
78117;BME280;69042;59.120;37.904;2023-08-20T09:30:55;100580.31;;;22.44;50.48
78117;BME280;69042;59.120;37.904;2023-08-20T09:33:21;100577.31;;;22.37;50.46
78117;BME280;69042;59.120;37.904;2023-08-20T09:35:51;100571.22;;;22.26;50.08
78117;BME280;69042;59.120;37.904;2023-08-20T09:38:20;100571.97;;;22.16;49.98
78117;BME280;69042;59.120;37.904;2023-08-20T09:40:51;100575.72;;;22.14;50.22
78117;BME280;69042;59.120;37.904;2023-08-20T09:43:19;100568.06;;;22.20;50.27
78117;BME280;69042;59.120;37.904;2023-08-20T09:45:47;100567.78;;;22.35;50.24
78117;BME280;69042;59.120;37.904;2023-08-20T09:48:17;100564.53;;;22.52;50.02
78117;BME280;69042;59.120;37.904;2023-08-20T09:50:47;100568.97;;;22.63;49.23
78117;BME280;69042;59.120;37.904;2023-08-20T09:55:46;100576.81;;;22.43;47.83
78117;BME280;69042;59.120;37.904;2023-08-20T09:58:14;100575.00;;;22.23;48.16
78117;BME280;69042;59.120;37.904;2023-08-20T10:00:42;100564.53;;;22.20;48.94
78117;BME280;69042;59.120;37.904;2023-08-20T10:03:09;100572.91;;;22.27;48.97
78117;BME280;69042;59.120;37.904;2023-08-20T10:05:35;100567.06;;;22.33;49.25
78117;BME280;69042;59.120;37.904;2023-08-20T10:08:01;100573.31;;;22.43;48.88
78117;BME280;69042;59.120;37.904;2023-08-20T10:10:29;100565.78;;;22.48;49.05
78117;BME280;69042;59.120;37.904;2023-08-20T10:12:56;100569.03;;;22.52;48.85
78117;BME280;69042;59.120;37.904;2023-08-20T10:15:22;100570.09;;;22.49;48.58
78117;BME280;69042;59.120;37.904;2023-08-20T10:17:52;100565.06;;;22.46;48.03
78117;BME280;69042;59.120;37.904;2023-08-20T10:20:18;100579.09;;;22.48;48.29
78117;BME280;69042;59.120;37.904;2023-08-20T10:22:46;100573.81;;;22.58;48.27
78117;BME280;69042;59.120;37.904;2023-08-20T10:25:22;100574.53;;;22.81;47.81
78117;BME280;69042;59.120;37.904;2023-08-20T10:27:49;100559.94;;;23.06;47.93
78117;BME280;69042;59.120;37.904;2023-08-20T10:30:27;100564.31;;;23.17;46.47
78117;BME280;69042;59.120;37.904;2023-08-20T10:32:56;100568.25;;;23.13;46.26
78117;BME280;69042;59.120;37.904;2023-08-20T10:35:25;100564.97;;;22.99;45.71
78117;BME280;69042;59.120;37.904;2023-08-20T10:38:12;100574.38;;;22.82;45.99
78117;BME280;69042;59.120;37.904;2023-08-20T10:40:52;100570.50;;;22.65;46.14
78117;BME280;69042;59.120;37.904;2023-08-20T10:43:37;100577.31;;;22.58;46.27
78117;BME280;69042;59.120;37.904;2023-08-20T10:46:19;100568.47;;;22.58;46.67
78117;BME280;69042;59.120;37.904;2023-08-20T10:48:54;100559.91;;;22.75;46.62
78117;BME280;69042;59.120;37.904;2023-08-20T10:51:35;100558.38;;;23.03;47.02
78117;BME280;69042;59.120;37.904;2023-08-20T10:56:53;100561.13;;;23.33;45.68
78117;BME280;69042;59.120;37.904;2023-08-20T10:59:25;100557.47;;;23.24;44.89
78117;BME280;69042;59.120;37.904;2023-08-20T11:01:56;100552.50;;;23.10;44.82
78117;BME280;69042;59.120;37.904;2023-08-20T11:04:28;100556.56;;;23.04;44.92
78117;BME280;69042;59.120;37.904;2023-08-20T11:06:56;100552.25;;;23.13;45.08
78117;BME280;69042;59.120;37.904;2023-08-20T11:09:24;100547.53;;;23.36;45.00
78117;BME280;69042;59.120;37.904;2023-08-20T11:11:51;100544.38;;;23.71;45.01
78117;BME280;69042;59.120;37.904;2023-08-20T11:14:19;100539.75;;;24.22;44.51
78117;BME280;69042;59.120;37.904;2023-08-20T11:16:46;100531.03;;;24.86;44.17
78117;BME280;69042;59.120;37.904;2023-08-20T11:19:19;100529.03;;;25.53;43.13
78117;BME280;69042;59.120;37.904;2023-08-20T11:21:45;100543.53;;;25.69;41.86
78117;BME280;69042;59.120;37.904;2023-08-20T11:24:12;100538.47;;;25.48;41.49
78117;BME280;69042;59.120;37.904;2023-08-20T11:26:39;100537.16;;;25.06;40.75
78117;BME280;69042;59.120;37.904;2023-08-20T11:29:10;100530.09;;;24.78;41.62
78117;BME280;69042;59.120;37.904;2023-08-20T11:31:38;100531.88;;;24.87;41.81
78117;BME280;69042;59.120;37.904;2023-08-20T11:34:05;100532.16;;;25.21;41.95
78117;BME280;69042;59.120;37.904;2023-08-20T11:36:32;100512.81;;;25.73;41.97
78117;BME280;69042;59.120;37.904;2023-08-20T11:38:58;100517.66;;;26.31;40.87
78117;BME280;69042;59.120;37.904;2023-08-20T11:41:25;100515.75;;;27.02;41.27
78117;BME280;69042;59.120;37.904;2023-08-20T11:43:52;100507.56;;;27.87;40.94
78117;BME280;69042;59.120;37.904;2023-08-20T11:46:20;100512.50;;;28.80;39.59
78117;BME280;69042;59.120;37.904;2023-08-20T11:49:04;100506.88;;;30.07;39.26
78117;BME280;69042;59.120;37.904;2023-08-20T11:51:49;100502.34;;;31.41;37.62
78117;BME280;69042;59.120;37.904;2023-08-20T11:54:17;100505.22;;;31.61;33.94
78117;BME280;69042;59.120;37.904;2023-08-20T11:59:12;100498.94;;;29.91;32.78
78117;BME280;69042;59.120;37.904;2023-08-20T12:01:39;100504.00;;;29.08;33.80
78117;BME280;69042;59.120;37.904;2023-08-20T12:04:06;100502.66;;;29.35;35.22
78117;BME280;69042;59.120;37.904;2023-08-20T12:06:34;100494.41;;;30.44;35.46
78117;BME280;69042;59.120;37.904;2023-08-20T12:09:01;100489.47;;;31.86;34.56
78117;BME280;69042;59.120;37.904;2023-08-20T12:11:30;100484.53;;;33.36;32.90
78117;BME280;69042;59.120;37.904;2023-08-20T12:13:57;100478.88;;;34.77;31.66
78117;BME280;69042;59.120;37.904;2023-08-20T12:16:24;100473.72;;;36.03;29.75
78117;BME280;69042;59.120;37.904;2023-08-20T12:18:51;100481.63;;;36.30;27.48
78117;BME280;69042;59.120;37.904;2023-08-20T12:21:18;100482.97;;;35.38;26.81
78117;BME280;69042;59.120;37.904;2023-08-20T12:23:45;100482.31;;;33.93;26.51
78117;BME280;69042;59.120;37.904;2023-08-20T12:26:11;100480.50;;;32.35;27.31
78117;BME280;69042;59.120;37.904;2023-08-20T12:28:37;100474.31;;;31.64;28.81
78117;BME280;69042;59.120;37.904;2023-08-20T12:31:03;100473.53;;;32.20;30.05
78117;BME280;69042;59.120;37.904;2023-08-20T12:33:29;100467.00;;;33.25;29.90
78117;BME280;69042;59.120;37.904;2023-08-20T12:35:56;100462.06;;;34.35;28.75
78117;BME280;69042;59.120;37.904;2023-08-20T12:38:22;100461.09;;;35.27;27.74
78117;BME280;69042;59.120;37.904;2023-08-20T12:40:48;100463.94;;;36.20;27.37
78117;BME280;69042;59.120;37.904;2023-08-20T12:43:14;100466.50;;;37.07;26.46
78117;BME280;69042;59.120;37.904;2023-08-20T12:45:40;100468.22;;;37.62;25.17
78117;BME280;69042;59.120;37.904;2023-08-20T12:48:07;100462.81;;;37.86;24.56
78117;BME280;69042;59.120;37.904;2023-08-20T12:50:36;100469.81;;;38.05;24.57
78117;BME280;69042;59.120;37.904;2023-08-20T12:53:02;100467.34;;;38.04;23.01
78117;BME280;69042;59.120;37.904;2023-08-20T12:55:28;100467.41;;;37.62;23.65
78117;BME280;69042;59.120;37.904;2023-08-20T12:57:56;100454.59;;;37.02;23.22